createdAt,value
2022-10-22T00:01:04.993Z,4.63
2022-10-22T00:04:14.503Z,4.00
2022-10-22T00:07:19.823Z,4.32
2022-10-22T00:10:23.375Z,3.57
2022-10-22T00:13:26.855Z,3.65
2022-10-22T00:16:30.003Z,4.35
2022-10-22T00:19:33.252Z,4.43
2022-10-22T00:22:37.986Z,3.67
2022-10-22T00:25:41.243Z,3.20
2022-10-22T00:28:44.534Z,4.43
2022-10-22T00:31:49.958Z,3.33
2022-10-22T00:34:53.215Z,3.03
2022-10-22T00:37:57.852Z,2.60
2022-10-22T00:44:24.804Z,3.22
2022-10-22T00:47:32.798Z,3.05
2022-10-22T00:50:42.521Z,4.07
2022-10-22T00:53:53.484Z,2.85
2022-10-22T00:56:57.026Z,2.83
2022-10-22T01:00:00.293Z,3.40
2022-10-22T01:03:03.774Z,4.07
2022-10-22T01:06:08.261Z,2.95
2022-10-22T01:09:26.556Z,3.33
2022-10-22T01:12:46.093Z,4.17
2022-10-22T01:16:01.332Z,3.13
2022-10-22T01:19:40.799Z,4.00
2022-10-22T01:22:55.984Z,4.88
2022-10-22T01:26:10.375Z,2.78
2022-10-22T01:29:20.992Z,4.57
2022-10-22T01:32:27.975Z,3.15
2022-10-22T01:35:38.077Z,2.72
2022-10-22T01:38:43.815Z,3.17
2022-10-22T01:41:47.794Z,3.40
2022-10-22T01:44:52.384Z,4.00
2022-10-22T01:48:10.281Z,3.53
2022-10-22T01:51:36.205Z,2.42
2022-10-22T01:54:52.608Z,4.07
2022-10-22T01:58:15.544Z,3.45
2022-10-22T02:01:32.879Z,3.90
2022-10-22T02:04:48.287Z,2.47
2022-10-22T02:08:01.040Z,2.78
2022-10-22T02:11:06.416Z,2.92
2022-10-22T02:14:13.472Z,3.33
2022-10-22T02:17:22.602Z,2.57
2022-10-22T02:20:30.863Z,3.25
2022-10-22T02:23:34.562Z,2.72
2022-10-22T02:26:47.596Z,3.15
2022-10-22T02:30:03.105Z,2.63
2022-10-22T02:33:16.833Z,2.70
2022-10-22T02:36:22.434Z,2.65
2022-10-22T02:39:27.629Z,2.67
2022-10-22T02:42:31.838Z,2.83
2022-10-22T02:45:36.180Z,3.42
2022-10-22T02:48:40.774Z,3.00
2022-10-22T02:51:44.095Z,2.88
2022-10-22T02:54:47.526Z,2.40
2022-10-22T02:57:50.813Z,3.40
2022-10-22T03:00:54.020Z,2.35
2022-10-22T03:03:58.701Z,2.07
2022-10-22T03:07:02.033Z,2.22
2022-10-22T03:10:06.741Z,2.53
2022-10-22T03:13:10.185Z,2.50
2022-10-22T03:16:13.447Z,2.53
2022-10-22T03:19:18.166Z,2.70
2022-10-22T03:22:26.000Z,3.05
2022-10-22T03:25:31.328Z,4.43
2022-10-22T03:28:36.319Z,2.15
2022-10-22T03:31:39.507Z,2.30
2022-10-22T03:34:44.174Z,2.20
2022-10-22T03:37:47.899Z,2.10
2022-10-22T03:40:51.847Z,2.60
2022-10-22T03:43:57.442Z,2.80
2022-10-22T03:47:02.640Z,3.80
2022-10-22T03:50:09.712Z,3.50
2022-10-22T03:53:12.959Z,2.28
2022-10-22T03:56:16.116Z,2.50
2022-10-22T03:59:19.314Z,3.83
2022-10-22T04:02:22.571Z,2.22
2022-10-22T04:05:27.255Z,3.23
2022-10-22T04:08:30.818Z,6.13
2022-10-22T04:11:34.187Z,2.60
2022-10-22T04:14:37.314Z,2.65
2022-10-22T04:17:40.893Z,3.40
2022-10-22T04:20:46.378Z,3.93
2022-10-22T04:23:53.093Z,2.97
2022-10-22T04:26:57.013Z,2.20
2022-10-22T04:30:00.185Z,3.05
2022-10-22T04:33:03.852Z,2.20
2022-10-22T04:36:11.680Z,3.20
2022-10-22T04:39:16.205Z,3.08
2022-10-22T04:42:19.410Z,2.53
2022-10-22T04:45:22.588Z,1.95
2022-10-22T04:48:25.980Z,2.28
2022-10-22T04:51:30.724Z,3.10
2022-10-22T04:54:34.128Z,2.95
2022-10-22T04:57:37.488Z,3.63
2022-10-22T05:00:40.779Z,2.83
2022-10-22T05:03:46.086Z,2.47
2022-10-22T05:06:50.651Z,17.53
2022-10-22T05:09:54.962Z,6.28
2022-10-22T05:12:58.498Z,3.20
2022-10-22T05:16:02.849Z,4.07
2022-10-22T05:19:08.063Z,5.47
2022-10-22T05:22:14.055Z,4.80
2022-10-22T05:25:17.809Z,5.70
2022-10-22T05:28:21.080Z,4.40
2022-10-22T05:31:25.323Z,5.32
2022-10-22T05:34:28.740Z,4.63
2022-10-22T05:37:33.311Z,5.97
2022-10-22T05:40:36.574Z,2.22
2022-10-22T05:43:41.054Z,4.50
2022-10-22T05:46:44.264Z,6.13
2022-10-22T05:49:47.458Z,4.38
2022-10-22T05:52:51.928Z,3.50
2022-10-22T05:55:55.121Z,2.33
2022-10-22T05:58:58.913Z,3.72
2022-10-22T06:02:02.153Z,3.50
2022-10-22T06:05:05.722Z,2.78
2022-10-22T06:08:18.967Z,5.00
2022-10-22T06:11:24.654Z,4.97
2022-10-22T06:14:29.228Z,5.45
2022-10-22T06:17:32.643Z,2.20
2022-10-22T06:20:36.297Z,2.90
2022-10-22T06:23:41.537Z,3.97
2022-10-22T06:26:45.429Z,4.03
2022-10-22T06:29:51.793Z,3.03
2022-10-22T06:32:55.077Z,3.75
2022-10-22T06:36:07.760Z,6.13
2022-10-22T06:39:15.148Z,4.50
2022-10-22T06:42:18.255Z,4.03
2022-10-22T06:45:24.337Z,5.80
2022-10-22T06:48:27.624Z,4.65
2022-10-22T06:51:31.499Z,8.23
2022-10-22T06:54:36.075Z,7.93
2022-10-22T06:57:42.028Z,5.82
2022-10-22T07:00:45.397Z,6.32
2022-10-22T07:03:51.884Z,8.23
2022-10-22T07:06:56.338Z,4.50
2022-10-22T07:10:00.944Z,8.10
2022-10-22T07:13:03.971Z,5.97
2022-10-22T07:16:09.712Z,8.05
2022-10-22T07:19:13.400Z,6.72
2022-10-22T07:22:16.932Z,9.00
2022-10-22T07:25:21.318Z,5.03
2022-10-22T07:28:25.190Z,4.38
2022-10-22T07:31:28.609Z,8.75
2022-10-22T07:34:32.140Z,8.05
2022-10-22T07:37:35.310Z,6.57
2022-10-22T07:40:40.121Z,5.80
2022-10-22T07:43:43.849Z,7.72
2022-10-22T07:46:48.913Z,5.95
2022-10-22T07:49:52.118Z,8.25
2022-10-22T07:52:57.504Z,8.57
2022-10-22T07:56:03.101Z,10.70
2022-10-22T07:59:06.799Z,7.43
2022-10-22T08:02:10.862Z,6.13
2022-10-22T08:05:14.553Z,5.72
2022-10-22T08:08:18.187Z,6.73
2022-10-22T08:11:22.911Z,5.20
2022-10-22T08:14:26.077Z,6.93
2022-10-22T08:17:29.683Z,7.97
2022-10-22T08:20:32.732Z,6.87
2022-10-22T08:23:36.164Z,6.50
2022-10-22T08:26:40.877Z,7.38
2022-10-22T08:29:44.431Z,7.25
2022-10-22T08:32:49.329Z,6.50
2022-10-22T08:35:55.180Z,6.60
2022-10-22T08:38:58.693Z,7.18
2022-10-22T08:42:21.012Z,9.82
2022-10-22T08:45:34.700Z,6.53
2022-10-22T08:48:47.496Z,6.40
2022-10-22T08:51:51.606Z,10.80
2022-10-22T08:54:58.733Z,6.68
2022-10-22T08:58:20.476Z,7.90
2022-10-22T09:01:34.179Z,7.70
2022-10-22T09:04:49.347Z,7.03
2022-10-22T09:07:53.151Z,6.72
2022-10-22T09:11:04.607Z,6.90
2022-10-22T09:17:37.434Z,7.32
2022-10-22T09:20:51.396Z,9.30
2022-10-22T09:24:06.370Z,6.20
2022-10-22T09:27:14.744Z,5.95
2022-10-22T09:30:23.036Z,7.15
2022-10-22T09:33:30.791Z,6.38
2022-10-22T09:36:35.139Z,6.43
2022-10-22T09:39:42.557Z,6.80
2022-10-22T09:42:47.505Z,7.28
2022-10-22T09:45:59.285Z,8.88
2022-10-22T09:49:07.972Z,5.63
2022-10-22T09:52:31.435Z,9.05
2022-10-22T09:55:34.649Z,8.73
2022-10-22T09:58:49.232Z,7.47
2022-10-22T10:02:13.594Z,8.43
2022-10-22T10:05:29.889Z,7.13
2022-10-22T10:08:33.512Z,8.35
2022-10-22T10:11:46.741Z,9.57
2022-10-22T10:15:05.151Z,7.40
2022-10-22T10:18:26.345Z,6.50
2022-10-22T10:21:44.939Z,5.75
2022-10-22T10:25:13.619Z,9.38
2022-10-22T10:28:36.362Z,8.40
2022-10-22T10:32:01.994Z,6.13
2022-10-22T10:35:24.819Z,6.55
2022-10-22T10:38:43.236Z,6.15
2022-10-22T10:42:00.649Z,6.30
2022-10-22T10:45:19.142Z,6.55
2022-10-22T10:48:42.936Z,6.60
2022-10-22T10:51:57.902Z,6.90
2022-10-22T10:55:19.640Z,7.23
2022-10-22T10:58:35.329Z,9.90
2022-10-22T11:01:55.747Z,8.32
2022-10-22T11:05:29.543Z,7.50
2022-10-22T11:08:39.791Z,6.90
2022-10-22T11:11:51.336Z,10.18
2022-10-22T11:15:09.080Z,6.97
2022-10-22T11:18:25.197Z,6.80
2022-10-22T11:21:39.800Z,6.27
2022-10-22T11:24:54.722Z,10.38
2022-10-22T11:28:10.345Z,6.95
2022-10-22T11:31:17.246Z,8.82
2022-10-22T11:34:33.627Z,12.90
2022-10-22T11:37:39.157Z,10.60
2022-10-22T11:40:53.725Z,9.75
2022-10-22T11:44:11.589Z,7.80
2022-10-22T11:47:21.525Z,9.77
2022-10-22T11:50:28.863Z,8.65
2022-10-22T11:53:35.117Z,10.40
2022-10-22T11:56:40.315Z,10.10
2022-10-22T11:59:51.762Z,14.30
2022-10-22T12:03:06.041Z,10.30
2022-10-22T12:06:22.260Z,10.57
2022-10-22T12:09:30.291Z,11.35
2022-10-22T12:12:40.648Z,12.63
2022-10-22T12:15:52.215Z,11.23
2022-10-22T12:19:04.174Z,14.63
2022-10-22T12:22:18.048Z,12.35
2022-10-22T12:25:25.870Z,12.83
2022-10-22T12:28:30.501Z,10.00
2022-10-22T12:31:39.258Z,12.07
2022-10-22T12:37:59.840Z,11.23
2022-10-22T12:41:03.089Z,12.25
2022-10-22T12:44:07.971Z,12.63
2022-10-22T12:47:17.625Z,11.68
2022-10-22T12:50:30.253Z,14.00
2022-10-22T12:53:37.820Z,7.35
2022-10-22T12:56:41.176Z,7.55
2022-10-22T12:59:50.726Z,9.23
2022-10-22T13:02:55.113Z,7.70
2022-10-22T13:05:58.633Z,7.18
2022-10-22T13:09:16.035Z,9.05
2022-10-22T13:12:27.130Z,8.10
2022-10-22T13:15:40.064Z,6.80
2022-10-22T13:18:44.731Z,8.40
2022-10-22T13:21:50.139Z,7.15
2022-10-22T13:24:53.558Z,7.13
2022-10-22T13:28:00.700Z,6.47
2022-10-22T13:31:16.626Z,8.57
2022-10-22T13:34:24.471Z,8.67
2022-10-22T13:37:30.944Z,5.78
2022-10-22T13:40:33.989Z,6.53
2022-10-22T13:43:37.344Z,6.55
2022-10-22T13:46:43.008Z,5.78
2022-10-22T13:49:46.801Z,9.10
2022-10-22T13:52:54.515Z,5.50
2022-10-22T13:55:58.213Z,7.60
2022-10-22T13:59:01.467Z,6.72
2022-10-22T14:02:13.423Z,5.78
2022-10-22T14:05:18.789Z,7.47
2022-10-22T14:08:25.823Z,5.75
2022-10-22T14:11:31.334Z,6.25
2022-10-22T14:14:35.033Z,7.15
2022-10-22T14:17:43.099Z,6.90
2022-10-22T14:20:46.527Z,6.57
2022-10-22T14:23:51.665Z,5.70
2022-10-22T14:26:54.965Z,7.05
2022-10-22T14:29:59.615Z,5.95
2022-10-22T14:33:15.720Z,6.25
2022-10-22T14:36:20.282Z,6.13
2022-10-22T14:39:23.349Z,5.95
2022-10-22T14:42:26.870Z,8.18
2022-10-22T14:45:30.263Z,5.15
2022-10-22T14:48:34.916Z,5.35
2022-10-22T14:51:38.401Z,6.57
2022-10-22T14:54:41.711Z,5.82
2022-10-22T14:57:45.746Z,6.40
2022-10-22T15:00:49.106Z,5.40
2022-10-22T15:03:53.621Z,7.10
2022-10-22T15:06:56.965Z,8.97
2022-10-22T15:10:00.511Z,9.98
2022-10-22T15:13:03.856Z,15.13
2022-10-22T15:16:09.339Z,11.20
2022-10-22T15:19:14.220Z,7.47
2022-10-22T15:22:19.302Z,10.77
2022-10-22T15:25:23.260Z,8.27
2022-10-22T15:28:26.918Z,10.38
2022-10-22T15:31:52.409Z,10.48
2022-10-22T15:34:58.772Z,14.18
2022-10-22T15:38:02.262Z,10.30
2022-10-22T15:41:09.937Z,9.93
2022-10-22T15:44:18.205Z,6.63
2022-10-22T15:47:22.607Z,7.15
2022-10-22T15:50:28.180Z,9.27
2022-10-22T15:53:31.390Z,8.90
2022-10-22T15:56:34.762Z,5.28
2022-10-22T15:59:38.102Z,8.68
2022-10-22T16:02:41.364Z,7.88
2022-10-22T16:05:54.349Z,9.63
2022-10-22T16:09:00.472Z,6.37
2022-10-22T16:12:04.127Z,13.00
2022-10-22T16:15:09.733Z,9.82
2022-10-22T16:18:13.033Z,5.97
2022-10-22T16:21:18.187Z,9.38
2022-10-22T16:24:23.222Z,10.10
2022-10-22T16:27:26.373Z,10.00
2022-10-22T16:30:29.717Z,9.10
2022-10-22T16:33:41.380Z,8.80
2022-10-22T16:36:49.737Z,6.90
2022-10-22T16:39:52.998Z,9.20
2022-10-22T16:42:56.767Z,9.10
2022-10-22T16:46:00.146Z,8.10
2022-10-22T16:49:03.802Z,9.40
2022-10-22T16:52:08.227Z,7.65
2022-10-22T16:55:11.666Z,9.20
2022-10-22T16:58:14.994Z,6.57
2022-10-22T17:01:20.152Z,8.25
2022-10-22T17:04:23.740Z,7.88
2022-10-22T17:07:28.505Z,8.88
2022-10-22T17:10:32.465Z,5.90
2022-10-22T17:13:36.621Z,7.63
2022-10-22T17:16:39.839Z,7.28
2022-10-22T17:19:43.273Z,6.65
2022-10-22T17:22:49.401Z,7.07
2022-10-22T17:26:00.518Z,8.20
2022-10-22T17:29:04.414Z,7.15
2022-10-22T17:32:07.699Z,6.18
2022-10-22T17:35:11.415Z,5.78
2022-10-22T17:38:16.078Z,6.15
2022-10-22T17:41:22.773Z,5.27
2022-10-22T17:44:26.041Z,7.60
2022-10-22T17:47:29.007Z,6.65
2022-10-22T17:50:33.354Z,4.85
2022-10-22T17:53:42.817Z,7.05
2022-10-22T17:56:46.189Z,7.80
2022-10-22T17:59:49.334Z,5.90
2022-10-22T18:02:52.791Z,9.25
2022-10-22T18:05:56.796Z,11.30
2022-10-22T18:09:06.061Z,9.55
2022-10-22T18:12:10.774Z,10.23
2022-10-22T18:15:13.976Z,7.35
2022-10-22T18:18:16.975Z,10.25
2022-10-22T18:21:20.833Z,12.68
2022-10-22T18:24:25.419Z,10.95
2022-10-22T18:27:28.765Z,10.77
2022-10-22T18:30:31.837Z,9.57
2022-10-22T18:33:36.807Z,10.98
2022-10-22T18:36:42.317Z,10.75
2022-10-22T18:39:46.806Z,8.95
2022-10-22T18:42:49.917Z,8.37
2022-10-22T18:45:53.560Z,9.90
2022-10-22T18:48:58.506Z,11.32
2022-10-22T18:52:01.755Z,9.55
2022-10-22T18:55:07.810Z,10.88
2022-10-22T18:58:11.008Z,10.47
2022-10-22T19:01:18.729Z,9.13
2022-10-22T19:04:23.017Z,9.48
2022-10-22T19:07:26.444Z,9.00
2022-10-22T19:10:31.139Z,12.32
2022-10-22T19:13:34.474Z,9.63
2022-10-22T19:16:38.668Z,10.73
2022-10-22T19:19:42.493Z,8.35
2022-10-22T19:22:45.693Z,7.07
2022-10-22T19:26:00.096Z,8.48
2022-10-22T19:29:04.834Z,12.73
2022-10-22T19:35:16.282Z,9.43
2022-10-22T19:38:19.569Z,10.60
2022-10-22T19:41:27.640Z,9.90
2022-10-22T19:44:30.849Z,7.00
2022-10-22T19:47:34.544Z,8.68
2022-10-22T19:50:37.886Z,11.52
2022-10-22T19:53:41.147Z,11.40
2022-10-22T19:56:47.096Z,8.93
2022-10-22T19:59:51.868Z,9.17
2022-10-22T20:02:55.504Z,8.20
2022-10-22T20:05:58.919Z,9.93
2022-10-22T20:09:02.121Z,9.40
2022-10-22T20:12:07.478Z,8.07
2022-10-22T20:15:10.952Z,7.27
2022-10-22T20:18:14.120Z,7.72
2022-10-22T20:21:20.004Z,7.78
2022-10-22T20:24:23.715Z,6.82
2022-10-22T20:27:28.138Z,8.18
2022-10-22T20:30:31.327Z,7.30
2022-10-22T20:33:34.650Z,6.90
2022-10-22T20:36:37.811Z,8.30
2022-10-22T20:39:40.750Z,9.30
2022-10-22T20:42:46.327Z,12.07
2022-10-22T20:45:49.807Z,8.93
2022-10-22T20:48:55.807Z,10.30
2022-10-22T20:51:59.051Z,8.98
2022-10-22T20:55:02.255Z,7.38
2022-10-22T20:58:06.825Z,6.05
2022-10-22T21:01:12.147Z,7.80
2022-10-22T21:04:17.089Z,6.38
2022-10-22T21:07:20.432Z,6.40
2022-10-22T21:10:23.693Z,6.63
2022-10-22T21:13:28.610Z,7.40
2022-10-22T21:16:32.071Z,6.13
2022-10-22T21:19:35.379Z,6.25
2022-10-22T21:22:38.572Z,6.53
2022-10-22T21:25:43.967Z,6.47
2022-10-22T21:28:49.248Z,4.43
2022-10-22T21:31:53.648Z,4.57
2022-10-22T21:34:56.813Z,6.15
2022-10-22T21:37:59.962Z,6.70
2022-10-22T21:41:06.056Z,6.25
2022-10-22T21:44:10.890Z,6.90
2022-10-22T21:47:14.218Z,6.13
2022-10-22T21:50:17.603Z,5.15
2022-10-22T21:53:20.624Z,4.90
2022-10-22T21:56:27.535Z,5.15
2022-10-22T21:59:32.398Z,8.20
2022-10-22T22:02:35.849Z,6.37
2022-10-22T22:05:39.579Z,5.28
2022-10-22T22:08:43.574Z,7.80
2022-10-22T22:11:46.971Z,5.43
2022-10-22T22:14:51.534Z,4.50
2022-10-22T22:17:54.901Z,3.43
2022-10-22T22:20:59.297Z,5.50
2022-10-22T22:24:02.611Z,5.20
2022-10-22T22:27:05.917Z,4.20
2022-10-22T22:30:12.297Z,6.18
2022-10-22T22:33:15.560Z,5.23
2022-10-22T22:36:18.964Z,4.80
2022-10-22T22:39:23.897Z,4.00
2022-10-22T22:42:26.962Z,4.50
2022-10-22T22:45:31.884Z,8.32
2022-10-22T22:48:35.773Z,4.33
2022-10-22T22:51:38.959Z,4.57
2022-10-22T22:54:41.985Z,4.50
2022-10-22T22:57:45.148Z,5.03
2022-10-22T23:00:49.738Z,5.07
2022-10-22T23:03:56.919Z,5.57
2022-10-22T23:07:00.131Z,4.88
2022-10-22T23:10:03.725Z,4.65
2022-10-22T23:13:07.080Z,4.65
2022-10-22T23:16:16.313Z,5.13
2022-10-22T23:19:23.406Z,4.70
2022-10-22T23:22:26.651Z,5.10
2022-10-22T23:25:29.912Z,4.10
2022-10-22T23:28:33.289Z,4.63
2022-10-22T23:31:38.496Z,3.45
2022-10-22T23:34:42.032Z,3.40
2022-10-22T23:37:45.187Z,3.85
2022-10-22T23:40:55.127Z,3.72
2022-10-22T23:43:58.591Z,3.58
2022-10-22T23:47:03.089Z,2.90
2022-10-22T23:50:07.341Z,3.67
2022-10-22T23:53:10.882Z,3.35
2022-10-22T23:56:19.185Z,3.95
2022-10-22T23:59:22.492Z,4.55
